Abbeville, Louisiana
Current Conditions -  °F | °C
As of 10:35 AM on Friday 28 Nov 2014 (Local Time) from KIYA Reporting Station
Clear Clear  
Wind Chill: 54°   Ceiling: Unl
Heat Index: 54°   Visibility: 10mi
Dew Point: 38°   Wind: 6mph
Humidity: 55%   Direction: 130°SE
Pressure: 30.4"   Gusts: NA
Location:  29.97°N, 92.13°W
Report Text: KIYA 281635Z AUTO 13005KT 10SM CLR 12/04 A3040 RMK AO2 T01230035
Loading
Personal Weather Stations






























Interactive Weather Map New forecast layout! Learn more

10-Day Weather Forecast

Advertisements
Track Severe Weather on mobile